Time;durP1;ratioP1;P1;durP2;ratioP2;P2;SDS_P1;SDS_P2;PMS_P1;PMS_P2;Temp;Humidity;BMP_temperature;BMP_pressure;BME280_temperature;BME280_humidity;BME280_pressure;Samples;Min_cycle;Max_cycle;Signal;HPM_P1;HPM_P2
2021/07/05 00:00:51;;;;;;;2.50;2.30;;;18.00;99.90;;;;;;5018007;28;20207;-79
2021/07/05 00:03:16;;;;;;;2.63;2.30;;;18.00;99.90;;;;;;5017780;28;20226;-79
2021/07/05 00:05:42;;;;;;;3.35;2.50;;;18.00;99.90;;;;;;5018731;28;20298;-78
2021/07/05 00:08:08;;;;;;;6.22;2.55;;;18.00;99.90;;;;;;5019468;28;20204;-78
2021/07/05 00:10:34;;;;;;;3.38;2.55;;;18.00;99.90;;;;;;5018182;28;20195;-79
2021/07/05 00:13:00;;;;;;;2.88;2.40;;;18.00;99.90;;;;;;5011481;28;20183;-78
2021/07/05 00:15:28;;;;;;;2.28;2.03;;;17.90;99.90;;;;;;5018173;28;20312;-80
2021/07/05 00:17:58;;;;;;;2.67;2.33;;;17.80;99.90;;;;;;5018422;28;20689;-79
2021/07/05 00:20:24;;;;;;;4.15;2.63;;;17.80;99.90;;;;;;5017509;28;20306;-80
2021/07/05 00:22:50;;;;;;;3.30;2.53;;;17.70;99.90;;;;;;5017615;28;20192;-79
2021/07/05 00:25:17;;;;;;;3.25;2.40;;;17.70;99.90;;;;;;5017854;28;21373;-79
2021/07/05 00:27:43;;;;;;;1.88;1.73;;;17.60;99.90;;;;;;5019058;28;20214;-79
2021/07/05 00:30:10;;;;;;;2.80;2.20;;;17.60;99.90;;;;;;5018183;28;20567;-78
2021/07/05 00:32:35;;;;;;;3.10;2.40;;;17.60;99.90;;;;;;5020771;28;20791;-78
2021/07/05 00:35:03;;;;;;;3.30;2.13;;;17.50;99.90;;;;;;5018971;28;20197;-79
2021/07/05 00:37:29;;;;;;;4.28;2.38;;;17.50;99.90;;;;;;5019136;28;20301;-79
2021/07/05 00:39:54;;;;;;;3.00;2.72;;;17.50;99.90;;;;;;5018058;28;20855;-79
2021/07/05 00:42:20;;;;;;;2.45;2.25;;;17.60;99.90;;;;;;5018368;28;21800;-79
2021/07/05 00:44:46;;;;;;;2.50;2.30;;;17.60;99.90;;;;;;5018853;28;20192;-78
2021/07/05 00:47:11;;;;;;;2.20;2.00;;;17.60;99.90;;;;;;5018951;28;20802;-78
2021/07/05 00:49:37;;;;;;;2.50;2.28;;;17.60;99.90;;;;;;5018151;28;20263;-77
2021/07/05 00:52:05;;;;;;;3.47;2.60;;;17.60;99.90;;;;;;5033810;28;20190;-77
2021/07/05 00:54:30;;;;;;;2.33;2.00;;;17.50;99.90;;;;;;5016598;28;20218;-79
2021/07/05 00:56:56;;;;;;;3.67;2.40;;;17.50;99.90;;;;;;5016480;28;20239;-78
2021/07/05 00:59:22;;;;;;;4.72;2.47;;;17.60;99.90;;;;;;5019240;28;20203;-79
2021/07/05 01:01:48;;;;;;;3.75;2.28;;;17.60;99.90;;;;;;5018964;28;20283;-79
2021/07/05 01:04:13;;;;;;;2.55;2.20;;;17.60;99.90;;;;;;5019001;28;21216;-79
2021/07/05 01:06:39;;;;;;;2.45;2.25;;;17.50;99.90;;;;;;5017974;28;20210;-79
2021/07/05 01:09:05;;;;;;;2.47;2.22;;;17.60;99.90;;;;;;5018044;28;20261;-78
2021/07/05 01:11:30;;;;;;;3.05;2.45;;;17.60;99.90;;;;;;5020086;28;20186;-79
2021/07/05 01:13:56;;;;;;;2.55;2.35;;;17.60;99.90;;;;;;5018009;28;20187;-79
2021/07/05 01:16:22;;;;;;;3.22;2.47;;;17.60;99.90;;;;;;5017810;28;20537;-79
2021/07/05 01:18:48;;;;;;;2.75;2.35;;;17.60;99.90;;;;;;5019603;28;20211;-79
2021/07/05 01:21:13;;;;;;;2.35;1.92;;;17.60;99.90;;;;;;5017430;28;20262;-78
2021/07/05 01:23:39;;;;;;;2.88;2.35;;;17.60;99.90;;;;;;5019104;28;20187;-79
2021/07/05 01:26:05;;;;;;;2.78;2.17;;;17.60;99.90;;;;;;5016868;28;20225;-79
2021/07/05 01:28:31;;;;;;;3.00;2.70;;;17.50;99.90;;;;;;5017984;28;20215;-78
2021/07/05 01:30:56;;;;;;;2.60;2.17;;;17.60;99.90;;;;;;5017878;28;20665;-78
2021/07/05 01:33:22;;;;;;;3.35;2.33;;;17.50;99.90;;;;;;5018734;28;20254;-79
2021/07/05 01:35:48;;;;;;;3.25;2.38;;;17.50;99.90;;;;;;5016771;28;20191;-77
2021/07/05 01:38:22;;;;;;;3.17;2.88;;;17.50;99.90;;;;;;5019541;28;20207;-77
2021/07/05 01:40:58;;;;;;;3.17;2.42;;;17.50;99.90;;;;;;5017444;28;20668;-79
2021/07/05 01:43:24;;;;;;;4.43;2.75;;;17.50;99.90;;;;;;5018094;28;20181;-79
2021/07/05 01:45:50;;;;;;;3.58;2.88;;;17.50;99.90;;;;;;5019036;28;20579;-78
2021/07/05 01:48:16;;;;;;;4.88;2.70;;;17.50;99.90;;;;;;5018432;28;20199;-79
2021/07/05 01:50:41;;;;;;;2.88;2.53;;;17.50;99.90;;;;;;5017000;28;20276;-79
2021/07/05 01:53:07;;;;;;;3.35;2.75;;;17.40;99.90;;;;;;5017783;28;20178;-79
2021/07/05 01:55:34;;;;;;;3.17;2.47;;;17.40;99.90;;;;;;5017924;28;20547;-79
2021/07/05 01:58:03;;;;;;;2.78;2.30;;;17.40;99.90;;;;;;5016585;28;20203;-78
2021/07/05 02:00:29;;;;;;;4.28;2.88;;;17.40;99.90;;;;;;5016241;28;20266;-79
2021/07/05 02:02:55;;;;;;;3.05;2.67;;;17.30;99.90;;;;;;5015911;28;20257;-79
2021/07/05 02:05:21;;;;;;;3.90;2.42;;;17.30;99.90;;;;;;5017211;28;20286;-78
2021/07/05 02:07:48;;;;;;;2.83;2.38;;;17.30;99.90;;;;;;5016393;28;20223;-79
2021/07/05 02:10:23;;;;;;;5.05;2.50;;;17.30;99.90;;;;;;5014739;28;21210;-79
2021/07/05 02:12:50;;;;;;;2.92;2.22;;;17.30;99.90;;;;;;5018906;28;20187;-77
2021/07/05 02:15:16;;;;;;;3.60;2.28;;;17.30;99.90;;;;;;5017775;28;20202;-79
2021/07/05 02:17:44;;;;;;;2.50;2.30;;;17.30;99.90;;;;;;5016758;28;20246;-79
2021/07/05 02:20:19;;;;;;;2.42;2.22;;;17.30;99.90;;;;;;5032503;28;20184;-78
2021/07/05 02:22:45;;;;;;;2.60;2.40;;;17.30;99.90;;;;;;5017745;28;20663;-78
2021/07/05 02:25:13;;;;;;;2.28;2.00;;;17.20;99.90;;;;;;5013604;28;20234;-78
2021/07/05 02:27:40;;;;;;;2.50;1.90;;;17.30;99.90;;;;;;5016053;28;20807;-79
2021/07/05 02:30:12;;;;;;;2.28;1.90;;;17.30;99.90;;;;;;5016045;28;20189;-79
2021/07/05 02:32:41;;;;;;;4.75;1.75;;;17.30;99.90;;;;;;5017970;28;20218;-78
2021/07/05 02:35:11;;;;;;;2.55;1.90;;;17.40;99.90;;;;;;5033151;22;20924;-75
2021/07/05 02:37:41;;;;;;;2.17;1.98;;;17.30;99.90;;;;;;5017120;28;20194;-74
2021/07/05 02:40:10;;;;;;;1.55;1.45;;;17.40;99.90;;;;;;5016534;28;20210;-74
2021/07/05 02:42:37;;;;;;;2.47;1.63;;;17.40;99.90;;;;;;5016963;28;20227;-74
2021/07/05 02:45:15;;;;;;;2.17;1.60;;;17.40;99.90;;;;;;5012335;28;20219;-74
2021/07/05 02:47:41;;;;;;;3.85;1.95;;;17.30;99.90;;;;;;5008709;28;20187;-74
2021/07/05 02:50:09;;;;;;;2.00;1.60;;;17.30;99.90;;;;;;5011620;28;20229;-75
2021/07/05 02:52:36;;;;;;;1.70;1.50;;;17.30;99.90;;;;;;5017489;28;20203;-74
2021/07/05 02:55:08;;;;;;;1.98;1.77;;;17.30;99.90;;;;;;5011637;28;20703;-75
2021/07/05 02:57:33;;;;;;;2.25;1.70;;;17.20;99.90;;;;;;5011662;28;20175;-74
2021/07/05 03:00:02;;;;;;;2.95;1.63;;;17.20;99.90;;;;;;5013111;28;20214;-77
2021/07/05 03:02:31;;;;;;;3.13;1.55;;;17.10;99.90;;;;;;5018133;28;20175;-75
2021/07/05 03:05:00;;;;;;;1.85;1.70;;;17.10;99.90;;;;;;5012769;28;20175;-76
2021/07/05 03:07:26;;;;;;;3.95;2.03;;;17.00;99.90;;;;;;5014812;28;20273;-74
2021/07/05 03:09:52;;;;;;;2.35;1.48;;;17.10;99.90;;;;;;5014134;28;20232;-74
2021/07/05 03:12:18;;;;;;;1.98;1.50;;;17.10;99.90;;;;;;5012350;28;20183;-75
2021/07/05 03:14:44;;;;;;;2.58;1.73;;;17.10;99.90;;;;;;5013851;28;20179;-74
2021/07/05 03:17:11;;;;;;;1.25;1.13;;;17.10;99.90;;;;;;5011973;28;20197;-75
2021/07/05 03:19:36;;;;;;;1.55;1.38;;;17.20;99.90;;;;;;5016082;28;20222;-75
2021/07/05 03:22:03;;;;;;;2.42;1.70;;;17.20;99.90;;;;;;5012746;28;20195;-75
2021/07/05 03:24:28;;;;;;;1.75;1.58;;;17.20;99.90;;;;;;5014584;28;20202;-74
2021/07/05 03:26:54;;;;;;;1.70;1.33;;;17.20;99.90;;;;;;5015924;28;20203;-75
2021/07/05 03:29:19;;;;;;;1.65;1.50;;;17.20;99.90;;;;;;5011828;28;20207;-74
2021/07/05 03:31:45;;;;;;;2.08;1.40;;;17.20;99.90;;;;;;5013455;28;20191;-74
2021/07/05 03:34:11;;;;;;;1.30;1.15;;;17.20;99.90;;;;;;5020697;28;20594;-74
2021/07/05 03:36:37;;;;;;;1.90;1.52;;;17.20;99.90;;;;;;5015519;28;20645;-75
2021/07/05 03:39:05;;;;;;;1.77;1.50;;;17.20;99.90;;;;;;5018518;28;20254;-74
2021/07/05 03:41:31;;;;;;;1.15;1.00;;;17.10;99.90;;;;;;5017126;28;20187;-74
2021/07/05 03:43:57;;;;;;;2.00;1.58;;;17.10;99.90;;;;;;5018951;28;20317;-74
2021/07/05 03:46:22;;;;;;;1.23;1.13;;;17.10;99.90;;;;;;5016175;28;20231;-75
2021/07/05 03:48:48;;;;;;;2.15;1.58;;;17.10;99.90;;;;;;5018753;28;20187;-79
2021/07/05 03:51:14;;;;;;;2.38;1.30;;;17.10;99.90;;;;;;5013420;28;20192;-77
2021/07/05 03:53:41;;;;;;;2.08;1.05;;;17.10;99.90;;;;;;5020685;28;20634;-75
2021/07/05 03:56:07;;;;;;;1.27;0.98;;;17.20;99.90;;;;;;5013089;28;20245;-75
2021/07/05 03:58:32;;;;;;;1.20;1.10;;;17.30;99.90;;;;;;5018042;28;20630;-75
2021/07/05 04:01:01;;;;;;;1.55;1.23;;;17.30;99.90;;;;;;5012789;28;20194;-76
2021/07/05 04:03:29;;;;;;;1.42;1.33;;;17.30;99.90;;;;;;5015461;28;20191;-75
2021/07/05 04:05:58;;;;;;;1.67;1.50;;;17.40;99.90;;;;;;5019112;28;20226;-76
2021/07/05 04:08:26;;;;;;;3.63;1.45;;;17.50;99.90;;;;;;5015990;28;20476;-77
2021/07/05 04:10:51;;;;;;;1.60;1.30;;;17.50;99.90;;;;;;5018008;28;20249;-75
2021/07/05 04:13:17;;;;;;;1.15;1.02;;;17.60;99.90;;;;;;5017191;28;20270;-76
2021/07/05 04:15:43;;;;;;;1.77;1.67;;;17.60;99.90;;;;;;5016606;28;20191;-75
2021/07/05 04:18:08;;;;;;;1.05;1.00;;;17.60;99.90;;;;;;5017466;28;20191;-75
2021/07/05 04:20:35;;;;;;;3.08;1.15;;;17.70;99.90;;;;;;5015175;28;20215;-75
2021/07/05 04:23:00;;;;;;;2.00;1.15;;;17.60;99.90;;;;;;5018487;28;20646;-78
2021/07/05 04:25:26;;;;;;;2.25;0.93;;;17.70;99.90;;;;;;5014395;28;20278;-75
2021/07/05 04:27:53;;;;;;;1.35;1.00;;;17.70;99.90;;;;;;5016187;28;20187;-75
2021/07/05 04:30:19;;;;;;;1.10;1.08;;;17.70;99.90;;;;;;5015505;28;20215;-76
2021/07/05 04:32:46;;;;;;;1.13;0.95;;;17.70;99.90;;;;;;5017173;28;20238;-75
2021/07/05 04:35:15;;;;;;;1.52;1.20;;;17.70;99.90;;;;;;5011432;28;20630;-76
2021/07/05 04:37:42;;;;;;;2.33;1.35;;;17.70;99.90;;;;;;5012717;28;20174;-76
2021/07/05 04:40:11;;;;;;;1.85;1.23;;;17.80;99.90;;;;;;5016091;28;20209;-75
2021/07/05 04:42:37;;;;;;;3.22;1.50;;;17.80;99.90;;;;;;5014498;28;20182;-76
2021/07/05 04:45:04;;;;;;;1.27;1.15;;;17.90;99.90;;;;;;5016996;28;20215;-75
2021/07/05 04:47:29;;;;;;;1.30;1.02;;;17.90;99.90;;;;;;5016831;28;20553;-75
2021/07/05 04:49:55;;;;;;;1.23;1.05;;;18.00;99.90;;;;;;5019238;28;20202;-75
2021/07/05 04:52:21;;;;;;;1.10;1.00;;;18.10;99.90;;;;;;5014453;28;20188;-77
2021/07/05 04:54:46;;;;;;;1.50;1.27;;;18.10;99.90;;;;;;5015268;28;20179;-75
2021/07/05 04:57:12;;;;;;;1.17;1.05;;;18.20;99.90;;;;;;5012630;28;20240;-75
2021/07/05 04:59:38;;;;;;;1.30;1.15;;;18.20;99.90;;;;;;5019088;28;20191;-75
2021/07/05 05:02:04;;;;;;;3.47;1.13;;;18.30;99.90;;;;;;5012935;28;20271;-75
2021/07/05 05:04:29;;;;;;;1.55;1.35;;;18.40;99.90;;;;;;5012514;28;20262;-76
2021/07/05 05:06:55;;;;;;;3.08;1.25;;;18.50;99.90;;;;;;5019267;28;20607;-76
2021/07/05 05:09:24;;;;;;;4.70;1.42;;;18.50;99.90;;;;;;5015874;28;20723;-75
2021/07/05 05:11:50;;;;;;;1.75;1.25;;;18.60;99.90;;;;;;5013824;28;20185;-75
2021/07/05 05:14:16;;;;;;;1.30;1.02;;;19.10;99.90;;;;;;5016002;28;20197;-76
2021/07/05 05:16:42;;;;;;;4.60;1.05;;;19.50;99.90;;;;;;5010100;28;20579;-75
2021/07/05 05:19:07;;;;;;;1.00;0.82;;;20.20;99.90;;;;;;5017008;28;20286;-74
2021/07/05 05:21:33;;;;;;;1.58;1.25;;;21.20;99.90;;;;;;5015557;28;20183;-75
2021/07/05 05:23:59;;;;;;;1.77;1.38;;;21.80;99.90;;;;;;5017990;28;20640;-75
2021/07/05 05:26:25;;;;;;;1.88;1.35;;;22.60;99.90;;;;;;5014927;28;20741;-76
2021/07/05 05:28:51;;;;;;;1.23;1.10;;;23.10;99.90;;;;;;5014201;28;20256;-78
2021/07/05 05:31:17;;;;;;;2.28;1.80;;;23.10;99.90;;;;;;5018360;28;20210;-75
2021/07/05 05:33:43;;;;;;;1.20;1.00;;;22.90;99.90;;;;;;5017089;28;20576;-75
2021/07/05 05:36:09;;;;;;;2.05;1.40;;;23.10;99.90;;;;;;5012866;28;20211;-77
2021/07/05 05:38:35;;;;;;;1.42;1.27;;;23.60;99.90;;;;;;5018678;28;20536;-77
2021/07/05 05:41:01;;;;;;;1.20;1.10;;;24.00;99.90;;;;;;5018241;28;20505;-76
2021/07/05 05:43:26;;;;;;;1.38;1.27;;;24.40;99.90;;;;;;5016328;28;20237;-75
2021/07/05 05:45:52;;;;;;;2.08;1.45;;;25.00;99.90;;;;;;5017072;28;20280;-74
2021/07/05 05:48:18;;;;;;;1.42;1.33;;;25.70;99.90;;;;;;5016396;28;20183;-76
2021/07/05 06:17:54;;;;;;;1.33;1.20;;;27.40;99.90;;;;;;4974513;28;20267;-77
2021/07/05 06:20:23;;;;;;;1.73;1.63;;;27.70;99.90;;;;;;5035080;28;20210;-77
2021/07/05 06:22:51;;;;;;;1.33;1.23;;;27.80;99.90;;;;;;5031921;28;20187;-78
2021/07/05 06:25:17;;;;;;;1.25;1.15;;;27.70;99.90;;;;;;5035127;28;20201;-78
2021/07/05 06:27:43;;;;;;;1.00;1.00;;;27.70;99.90;;;;;;5031177;28;20186;-78
2021/07/05 06:30:09;;;;;;;1.50;1.40;;;28.00;99.90;;;;;;5031836;28;20662;-79
2021/07/05 06:32:35;;;;;;;1.73;1.00;;;28.40;99.90;;;;;;5033996;28;20180;-79
2021/07/05 06:35:01;;;;;;;1.20;1.10;;;28.40;99.90;;;;;;5033955;28;20261;-80
2021/07/05 06:37:27;;;;;;;1.33;1.23;;;28.30;99.90;;;;;;5035118;28;20189;-79
2021/07/05 06:39:52;;;;;;;0.85;0.85;;;27.90;99.90;;;;;;5033468;28;20217;-80
2021/07/05 06:42:18;;;;;;;1.00;1.00;;;27.70;99.90;;;;;;5034391;28;20190;-78
2021/07/05 06:44:44;;;;;;;2.13;1.00;;;27.40;99.90;;;;;;5033253;28;20190;-80
2021/07/05 06:47:10;;;;;;;0.95;0.90;;;26.90;99.90;;;;;;5032814;28;20983;-80
2021/07/05 06:52:57;;;;;;;0.75;0.75;;;25.30;99.90;;;;;;5024610;28;20209;-76
2021/07/05 06:56:01;;;;;;;1.67;1.23;;;24.80;99.90;;;;;;5044028;28;20174;-75
2021/07/05 07:14:45;;;;;;;0.80;0.80;;;23.90;99.90;;;;;;5043997;22;20235;-78
2021/07/05 07:19:42;;;;;;;1.02;0.80;;;23.90;99.90;;;;;;5037486;28;20836;-77
2021/07/05 07:22:07;;;;;;;2.15;1.02;;;24.00;99.90;;;;;;5035197;28;20221;-78
2021/07/05 07:24:33;;;;;;;1.05;0.68;;;23.90;99.90;;;;;;5036785;28;20185;-78
2021/07/05 07:27:00;;;;;;;0.73;0.73;;;23.90;99.90;;;;;;5037948;28;20696;-79
2021/07/05 07:29:26;;;;;;;0.50;0.50;;;23.80;99.90;;;;;;5038892;28;20189;-78
2021/07/05 07:31:53;;;;;;;0.55;0.40;;;23.70;99.90;;;;;;5039403;28;20191;-77
2021/07/05 07:34:19;;;;;;;0.50;0.50;;;23.80;99.90;;;;;;5035473;28;20562;-78
2021/07/05 07:36:44;;;;;;;0.65;0.60;;;23.90;99.90;;;;;;5039220;28;20198;-78
2021/07/05 07:39:17;;;;;;;0.55;0.55;;;24.00;99.90;;;;;;5037857;28;20195;-79
2021/07/05 07:41:43;;;;;;;0.45;0.45;;;23.90;99.90;;;;;;5041752;28;20193;-78
2021/07/05 07:44:08;;;;;;;0.70;0.60;;;23.90;99.90;;;;;;5039673;28;20186;-78
2021/07/05 07:46:34;;;;;;;0.40;0.40;;;24.00;99.90;;;;;;5037582;28;20643;-77
2021/07/05 07:49:00;;;;;;;0.40;0.40;;;24.10;99.90;;;;;;5036937;28;20183;-78
2021/07/05 07:51:26;;;;;;;0.30;0.30;;;24.20;99.90;;;;;;5035340;28;20179;-78
2021/07/05 07:53:52;;;;;;;0.70;0.50;;;24.30;99.90;;;;;;5033648;28;20246;-79
2021/07/05 07:56:18;;;;;;;0.50;0.50;;;24.30;99.90;;;;;;5038938;28;20273;-78
2021/07/05 07:58:44;;;;;;;0.63;0.60;;;24.40;99.90;;;;;;5034434;28;20365;-79
2021/07/05 08:01:09;;;;;;;0.40;0.40;;;24.40;99.90;;;;;;5035905;28;20273;-79
2021/07/05 08:03:35;;;;;;;0.50;0.50;;;24.50;99.90;;;;;;5031764;28;20198;-79
2021/07/05 08:06:01;;;;;;;0.93;0.90;;;24.70;99.90;;;;;;5037314;28;20205;-80
2021/07/05 08:08:27;;;;;;;0.90;0.60;;;24.90;99.90;;;;;;5038287;28;20205;-78
2021/07/05 08:10:53;;;;;;;0.60;0.50;;;24.90;99.90;;;;;;5038699;28;20186;-79
2021/07/05 08:13:19;;;;;;;0.70;0.70;;;25.10;99.90;;;;;;5033640;28;20202;-79
2021/07/05 08:15:48;;;;;;;0.50;0.50;;;25.30;99.90;;;;;;5036029;28;20187;-79
2021/07/05 08:18:14;;;;;;;0.40;0.40;;;25.60;99.90;;;;;;5031980;28;20203;-79
2021/07/05 08:20:40;;;;;;;0.50;0.50;;;25.70;99.90;;;;;;5033258;28;20193;-79
2021/07/05 08:23:06;;;;;;;0.50;0.50;;;25.50;99.90;;;;;;5034182;28;20182;-80
2021/07/05 08:25:32;;;;;;;0.70;0.70;;;25.40;99.90;;;;;;5032456;28;20215;-79
2021/07/05 08:27:58;;;;;;;0.40;0.40;;;25.40;99.90;;;;;;5033941;28;20206;-79
2021/07/05 08:30:24;;;;;;;0.40;0.40;;;25.50;99.90;;;;;;5036813;28;20178;-79
2021/07/05 08:32:51;;;;;;;0.60;0.60;;;25.70;99.90;;;;;;5038821;28;20179;-79
2021/07/05 08:35:18;;;;;;;0.80;0.50;;;25.80;99.90;;;;;;5037014;28;20186;-79
2021/07/05 08:37:44;;;;;;;0.60;0.60;;;26.00;99.90;;;;;;5034869;28;20207;-79
2021/07/05 08:40:10;;;;;;;1.77;0.65;;;26.00;99.90;;;;;;5034694;28;20406;-79
2021/07/05 08:42:37;;;;;;;0.85;0.47;;;26.00;99.90;;;;;;5032623;28;20438;-79
2021/07/05 08:45:05;;;;;;;0.65;0.50;;;25.90;99.90;;;;;;5038733;28;20197;-79
2021/07/05 08:47:36;;;;;;;0.60;0.60;;;25.70;99.90;;;;;;5032367;28;20674;-79
2021/07/05 08:50:04;;;;;;;1.33;0.50;;;25.50;99.90;;;;;;5037824;28;20671;-80
2021/07/05 08:52:33;;;;;;;0.50;0.50;;;25.70;99.90;;;;;;5033085;28;20278;-79
2021/07/05 08:54:58;;;;;;;0.60;0.60;;;25.80;99.90;;;;;;5030256;28;20174;-79
2021/07/05 08:57:30;;;;;;;0.50;0.50;;;25.60;99.90;;;;;;5033908;28;20206;-79
2021/07/05 08:59:57;;;;;;;0.50;0.50;;;25.60;99.90;;;;;;5041065;28;20178;-80
2021/07/05 09:02:23;;;;;;;0.50;0.50;;;25.60;99.90;;;;;;5040398;28;20182;-79
2021/07/05 09:04:50;;;;;;;1.58;0.63;;;25.60;99.90;;;;;;5031807;28;20217;-79
2021/07/05 09:07:16;;;;;;;1.33;0.75;;;25.50;99.90;;;;;;5031488;28;20511;-79
2021/07/05 09:10:00;;;;;;;0.80;0.70;;;25.40;99.90;;;;;;5037710;28;20384;-79
2021/07/05 09:12:27;;;;;;;0.50;0.50;;;25.10;99.90;;;;;;5032773;28;20254;-79
2021/07/05 09:15:11;;;;;;;0.98;0.50;;;25.10;99.90;;;;;;5034163;28;20183;-79
2021/07/05 09:17:38;;;;;;;0.80;0.52;;;25.30;99.90;;;;;;5029713;28;20202;-79
2021/07/05 09:20:19;;;;;;;0.57;0.57;;;25.20;99.90;;;;;;5031174;28;20183;-79
2021/07/05 09:23:11;;;;;;;0.60;0.60;;;25.10;99.90;;;;;;5028152;28;20240;-78
2021/07/05 09:25:40;;;;;;;1.10;0.68;;;25.10;99.90;;;;;;5027763;28;20433;-79
2021/07/05 09:28:06;;;;;;;0.60;0.60;;;25.30;99.90;;;;;;5032856;28;20206;-80
2021/07/05 09:30:43;;;;;;;0.40;0.40;;;25.00;99.90;;;;;;5036449;28;20283;-79
2021/07/05 09:33:18;;;;;;;1.08;0.88;;;24.90;99.90;;;;;;5031878;28;20170;-79
2021/07/05 09:35:44;;;;;;;2.83;0.80;;;24.50;99.90;;;;;;5029873;28;20182;-80
2021/07/05 09:38:10;;;;;;;0.75;0.70;;;24.50;99.90;;;;;;5035997;28;20712;-79
2021/07/05 09:40:36;;;;;;;0.50;0.50;;;24.40;99.90;;;;;;5027954;28;20175;-79
2021/07/05 09:43:19;;;;;;;0.90;0.90;;;24.30;99.90;;;;;;5034369;28;20208;-80
2021/07/05 09:45:44;;;;;;;0.50;0.50;;;24.20;99.90;;;;;;5032235;28;20280;-79
2021/07/05 09:48:11;;;;;;;0.88;0.88;;;24.30;99.90;;;;;;5030620;28;20866;-79
2021/07/05 09:50:37;;;;;;;0.63;0.63;;;24.20;99.90;;;;;;5034890;28;20236;-79
2021/07/05 09:53:26;;;;;;;2.15;0.77;;;24.20;99.90;;;;;;5034976;28;20187;-79
2021/07/05 09:55:52;;;;;;;3.80;0.95;;;24.20;99.90;;;;;;5036779;28;20183;-79
2021/07/05 09:58:30;;;;;;;0.60;0.60;;;24.20;99.90;;;;;;5042392;28;20260;-78
2021/07/05 10:00:56;;;;;;;0.52;0.52;;;24.30;99.90;;;;;;5037331;28;20194;-79
2021/07/05 10:03:34;;;;;;;0.90;0.65;;;24.10;99.90;;;;;;5032438;28;20191;-78
2021/07/05 10:06:15;;;;;;;0.45;0.45;;;24.30;99.90;;;;;;5032637;28;20233;-79
2021/07/05 10:08:41;;;;;;;0.85;0.70;;;24.40;99.90;;;;;;5032109;28;20217;-79
2021/07/05 10:11:06;;;;;;;0.50;0.50;;;24.40;99.90;;;;;;5031796;28;20186;-79
2021/07/05 10:13:32;;;;;;;0.50;0.50;;;24.50;99.90;;;;;;5033906;28;20230;-78
2021/07/05 10:16:10;;;;;;;1.67;0.50;;;24.70;99.90;;;;;;5029801;28;20268;-79
2021/07/05 10:18:36;;;;;;;0.50;0.50;;;24.50;99.90;;;;;;5031050;28;20202;-78
2021/07/05 10:21:03;;;;;;;0.50;0.50;;;24.60;99.90;;;;;;5028916;28;20187;-78
2021/07/05 10:23:29;;;;;;;0.43;0.43;;;24.80;99.90;;;;;;5025499;28;20194;-78
2021/07/05 10:25:55;;;;;;;0.70;0.45;;;24.80;99.90;;;;;;5023299;28;20281;-78
2021/07/05 10:28:21;;;;;;;0.75;0.52;;;24.80;99.90;;;;;;5031193;28;20207;-78
2021/07/05 10:30:52;;;;;;;0.50;0.50;;;25.10;99.90;;;;;;5033658;28;20189;-79
2021/07/05 10:33:18;;;;;;;0.30;0.30;;;25.30;99.90;;;;;;5033813;28;20320;-78
2021/07/05 10:35:51;;;;;;;0.43;0.43;;;25.50;99.90;;;;;;5031874;28;20270;-77
2021/07/05 10:38:31;;;;;;;0.50;0.50;;;25.40;99.90;;;;;;5032290;28;20374;-77
2021/07/05 10:41:06;;;;;;;1.05;0.70;;;25.70;99.90;;;;;;5033784;28;20185;-79
2021/07/05 10:44:04;;;;;;;0.57;0.50;;;25.70;99.90;;;;;;5038588;28;20644;-79
2021/07/05 10:46:45;;;;;;;1.73;0.60;;;25.60;99.90;;;;;;5034589;28;20206;-79
2021/07/05 10:49:29;;;;;;;0.50;0.50;;;25.40;99.90;;;;;;5037849;28;20469;-78
2021/07/05 10:51:57;;;;;;;0.60;0.57;;;25.50;99.90;;;;;;5034882;28;20276;-78
2021/07/05 10:54:44;;;;;;;0.52;0.50;;;25.10;99.90;;;;;;5035757;28;20186;-79
2021/07/05 10:57:10;;;;;;;0.65;0.65;;;24.50;99.90;;;;;;5035512;28;20266;-79
2021/07/05 10:59:39;;;;;;;0.70;0.70;;;24.00;99.90;;;;;;5044523;28;20181;-78
2021/07/05 11:02:44;;;;;;;1.00;0.80;;;23.70;99.90;;;;;;5044364;28;20182;-79
2021/07/05 11:05:32;;;;;;;1.38;0.68;;;23.10;99.90;;;;;;5038488;28;20397;-79
2021/07/05 11:08:21;;;;;;;0.75;0.68;;;22.50;99.90;;;;;;5041433;28;20206;-78
2021/07/05 11:10:49;;;;;;;0.90;0.70;;;22.00;99.90;;;;;;5038963;28;20197;-79
2021/07/05 11:13:17;;;;;;;1.65;1.10;;;21.90;99.90;;;;;;5034081;28;20469;-78
2021/07/05 11:15:50;;;;;;;1.33;0.80;;;21.90;99.90;;;;;;5032252;28;20552;-78
2021/07/05 11:18:46;;;;;;;0.80;0.77;;;21.90;99.90;;;;;;5040981;28;20213;-78
2021/07/05 11:21:24;;;;;;;0.85;0.60;;;22.10;99.90;;;;;;5038371;28;20285;-79
2021/07/05 11:24:00;;;;;;;0.80;0.80;;;22.30;99.90;;;;;;5040772;28;20190;-79
2021/07/05 11:26:31;;;;;;;1.23;0.80;;;22.40;99.90;;;;;;5037214;28;20274;-79
2021/07/05 11:29:17;;;;;;;0.73;0.70;;;22.50;99.90;;;;;;5036362;28;20648;-80
2021/07/05 11:32:01;;;;;;;2.83;1.20;;;22.80;99.90;;;;;;5045502;28;20209;-80
2021/07/05 11:34:28;;;;;;;0.98;0.88;;;22.80;99.90;;;;;;5038102;28;20543;-78
2021/07/05 11:37:14;;;;;;;1.75;0.52;;;23.10;99.90;;;;;;5042074;28;20210;-79
2021/07/05 11:39:45;;;;;;;0.88;0.80;;;23.10;99.90;;;;;;5041464;28;20197;-79
2021/07/05 11:42:14;;;;;;;1.00;0.90;;;23.00;99.90;;;;;;5040756;28;20179;-78
2021/07/05 11:44:47;;;;;;;0.60;0.60;;;23.20;99.90;;;;;;5032730;28;20648;-78
2021/07/05 11:47:35;;;;;;;0.77;0.77;;;23.20;99.90;;;;;;5040767;28;20210;-79
2021/07/05 11:50:21;;;;;;;0.98;0.60;;;23.50;99.90;;;;;;5035241;28;20566;-78
2021/07/05 11:52:49;;;;;;;0.60;0.60;;;23.70;99.90;;;;;;5043577;28;20202;-79
2021/07/05 11:55:16;;;;;;;0.55;0.55;;;23.70;99.90;;;;;;5036915;28;20264;-79
2021/07/05 11:57:53;;;;;;;1.52;0.77;;;23.90;99.90;;;;;;5030041;28;20301;-79
2021/07/05 12:00:24;;;;;;;0.98;0.93;;;24.20;99.90;;;;;;5036106;28;20186;-79
2021/07/05 12:03:09;;;;;;;0.80;0.80;;;24.20;99.90;;;;;;5035842;28;20262;-79
2021/07/05 12:05:36;;;;;;;1.35;0.70;;;24.40;99.90;;;;;;5039146;28;20709;-79
2021/07/05 12:08:08;;;;;;;1.20;0.75;;;24.60;99.90;;;;;;5035362;28;20206;-78
2021/07/05 12:10:36;;;;;;;0.65;0.65;;;24.70;99.90;;;;;;5036820;28;20217;-79
2021/07/05 12:13:25;;;;;;;0.70;0.70;;;24.70;99.90;;;;;;5032390;28;20239;-79
2021/07/05 12:16:07;;;;;;;0.40;0.40;;;24.80;99.90;;;;;;5045545;28;20471;-79
2021/07/05 12:18:32;;;;;;;0.50;0.50;;;25.00;99.90;;;;;;5033878;28;20194;-79
2021/07/05 12:21:03;;;;;;;0.43;0.43;;;25.00;99.90;;;;;;5036414;28;20217;-78
2021/07/05 12:23:34;;;;;;;0.60;0.40;;;24.70;99.90;;;;;;5031444;28;20186;-79
2021/07/05 12:26:18;;;;;;;0.80;0.50;;;24.70;99.90;;;;;;5033602;28;20210;-79
2021/07/05 12:29:09;;;;;;;0.50;0.50;;;24.50;99.90;;;;;;5034500;28;20530;-79
2021/07/05 12:31:35;;;;;;;0.50;0.50;;;24.40;99.90;;;;;;5039389;28;20233;-79
2021/07/05 12:34:03;;;;;;;0.45;0.40;;;24.60;99.90;;;;;;5039317;28;20187;-78
2021/07/05 12:36:31;;;;;;;0.40;0.40;;;24.90;99.90;;;;;;5038497;28;20237;-79
2021/07/05 12:39:03;;;;;;;0.43;0.43;;;25.00;99.90;;;;;;5035547;28;20294;-78
2021/07/05 12:41:30;;;;;;;0.40;0.40;;;24.70;99.90;;;;;;5037124;28;20225;-78
2021/07/05 12:44:15;;;;;;;0.20;0.20;;;24.60;99.90;;;;;;5034500;28;20186;-78
2021/07/05 12:46:41;;;;;;;0.43;0.43;;;24.60;99.90;;;;;;5031079;28;20689;-78
2021/07/05 12:49:07;;;;;;;0.30;0.30;;;24.70;99.90;;;;;;5036658;28;20250;-79
2021/07/05 12:51:34;;;;;;;0.40;0.40;;;24.50;99.90;;;;;;5037147;28;20243;-77
2021/07/05 12:54:00;;;;;;;0.40;0.40;;;24.70;99.90;;;;;;5037878;28;20191;-79
2021/07/05 12:56:31;;;;;;;0.45;0.40;;;24.70;99.90;;;;;;5022147;28;21260;-79
2021/07/05 12:58:58;;;;;;;0.40;0.40;;;24.90;99.90;;;;;;5036119;28;20202;-79
2021/07/05 13:01:30;;;;;;;0.30;0.30;;;24.70;99.90;;;;;;5035191;28;20581;-77
2021/07/05 13:04:02;;;;;;;0.40;0.40;;;24.60;99.90;;;;;;5030601;28;20247;-76
2021/07/05 13:06:30;;;;;;;0.52;0.40;;;24.70;99.90;;;;;;5030431;28;20210;-79
2021/07/05 13:09:03;;;;;;;0.43;0.30;;;24.70;99.90;;;;;;5033024;28;20228;-77
2021/07/05 13:11:37;;;;;;;0.50;0.50;;;25.00;99.90;;;;;;5029250;28;20202;-78
2021/07/05 13:14:05;;;;;;;0.40;0.40;;;25.00;99.90;;;;;;5028180;28;20202;-78
2021/07/05 13:16:31;;;;;;;0.35;0.30;;;24.60;99.90;;;;;;5034288;28;20186;-77
2021/07/05 13:19:06;;;;;;;0.57;0.30;;;24.50;99.90;;;;;;5033694;28;20257;-77
2021/07/05 13:21:37;;;;;;;0.50;0.30;;;24.40;99.90;;;;;;5035361;28;20457;-76
2021/07/05 13:24:15;;;;;;;0.43;0.43;;;24.40;99.90;;;;;;5034552;28;20190;-78
2021/07/05 13:26:41;;;;;;;0.38;0.38;;;24.40;99.90;;;;;;5029620;28;20210;-78
2021/07/05 13:29:34;;;;;;;0.30;0.30;;;24.60;99.90;;;;;;5031555;28;20675;-79
2021/07/05 13:32:13;;;;;;;0.63;0.40;;;24.80;99.90;;;;;;5037338;28;20183;-78
2021/07/05 13:34:41;;;;;;;0.70;0.50;;;25.30;99.90;;;;;;5032614;28;20274;-78
2021/07/05 13:37:13;;;;;;;0.57;0.57;;;25.40;99.90;;;;;;5032201;28;20213;-79
2021/07/05 13:39:40;;;;;;;0.55;0.50;;;25.30;99.90;;;;;;5031670;28;20198;-79
2021/07/05 13:42:09;;;;;;;0.50;0.50;;;25.30;99.90;;;;;;5036127;28;20267;-78
2021/07/05 13:44:36;;;;;;;0.38;0.38;;;25.00;99.90;;;;;;5035136;28;20673;-78
2021/07/05 13:47:16;;;;;;;0.38;0.38;;;24.90;99.90;;;;;;5032461;28;20238;-79